sensor_id;sensor_type;location;lat;lon;timestamp;P1;durP1;ratioP1;P2;durP2;ratioP2
19521;SDS011;9905;52.126;5.596;2022-08-30T00:02:32;3.25;;;3.10;;
19521;SDS011;9905;52.126;5.596;2022-08-30T00:05:01;4.95;;;4.55;;
19521;SDS011;9905;52.126;5.596;2022-08-30T00:07:28;4.43;;;4.03;;
19521;SDS011;9905;52.126;5.596;2022-08-30T00:09:55;3.95;;;3.65;;
19521;SDS011;9905;52.126;5.596;2022-08-30T00:12:22;4.40;;;4.10;;
19521;SDS011;9905;52.126;5.596;2022-08-30T00:14:49;4.22;;;3.55;;
19521;SDS011;9905;52.126;5.596;2022-08-30T00:17:16;4.00;;;3.70;;
19521;SDS011;9905;52.126;5.596;2022-08-30T00:19:43;4.60;;;3.60;;
19521;SDS011;9905;52.126;5.596;2022-08-30T00:22:11;4.60;;;3.88;;
19521;SDS011;9905;52.126;5.596;2022-08-30T00:24:38;4.38;;;4.18;;
19521;SDS011;9905;52.126;5.596;2022-08-30T00:27:05;4.03;;;3.70;;
19521;SDS011;9905;52.126;5.596;2022-08-30T00:29:31;4.57;;;4.28;;
19521;SDS011;9905;52.126;5.596;2022-08-30T00:31:58;3.90;;;3.63;;
19521;SDS011;9905;52.126;5.596;2022-08-30T00:34:26;4.78;;;4.05;;
19521;SDS011;9905;52.126;5.596;2022-08-30T00:36:53;4.47;;;4.18;;
19521;SDS011;9905;52.126;5.596;2022-08-30T00:39:21;4.47;;;4.07;;
19521;SDS011;9905;52.126;5.596;2022-08-30T00:41:47;4.93;;;4.63;;
19521;SDS011;9905;52.126;5.596;2022-08-30T00:44:14;5.43;;;4.50;;
19521;SDS011;9905;52.126;5.596;2022-08-30T00:46:41;4.47;;;4.20;;
19521;SDS011;9905;52.126;5.596;2022-08-30T00:49:08;4.80;;;4.50;;
19521;SDS011;9905;52.126;5.596;2022-08-30T00:51:38;4.70;;;4.30;;
19521;SDS011;9905;52.126;5.596;2022-08-30T00:54:06;4.72;;;4.43;;
19521;SDS011;9905;52.126;5.596;2022-08-30T00:56:34;4.68;;;4.28;;
19521;SDS011;9905;52.126;5.596;2022-08-30T00:59:02;4.70;;;4.32;;
19521;SDS011;9905;52.126;5.596;2022-08-30T01:01:31;5.07;;;4.85;;
19521;SDS011;9905;52.126;5.596;2022-08-30T01:04:00;4.47;;;4.18;;
19521;SDS011;9905;52.126;5.596;2022-08-30T01:06:27;5.18;;;4.65;;
19521;SDS011;9905;52.126;5.596;2022-08-30T01:08:53;5.22;;;4.93;;
19521;SDS011;9905;52.126;5.596;2022-08-30T01:11:22;5.03;;;4.78;;
19521;SDS011;9905;52.126;5.596;2022-08-30T01:13:51;4.85;;;4.53;;
19521;SDS011;9905;52.126;5.596;2022-08-30T01:16:20;5.40;;;5.00;;
19521;SDS011;9905;52.126;5.596;2022-08-30T01:18:49;4.93;;;4.63;;
19521;SDS011;9905;52.126;5.596;2022-08-30T01:21:18;5.45;;;5.15;;
19521;SDS011;9905;52.126;5.596;2022-08-30T01:23:52;5.32;;;5.03;;
19521;SDS011;9905;52.126;5.596;2022-08-30T01:26:22;5.07;;;4.70;;
19521;SDS011;9905;52.126;5.596;2022-08-30T01:28:51;5.20;;;4.82;;
19521;SDS011;9905;52.126;5.596;2022-08-30T01:31:20;5.65;;;5.25;;
19521;SDS011;9905;52.126;5.596;2022-08-30T01:33:47;5.80;;;5.38;;
19521;SDS011;9905;52.126;5.596;2022-08-30T01:36:15;5.85;;;5.45;;
19521;SDS011;9905;52.126;5.596;2022-08-30T01:38:44;5.78;;;5.43;;
19521;SDS011;9905;52.126;5.596;2022-08-30T01:41:15;5.82;;;5.47;;
19521;SDS011;9905;52.126;5.596;2022-08-30T01:43:44;5.57;;;5.28;;
19521;SDS011;9905;52.126;5.596;2022-08-30T01:46:12;5.70;;;5.20;;
19521;SDS011;9905;52.126;5.596;2022-08-30T01:48:40;5.32;;;5.03;;
19521;SDS011;9905;52.126;5.596;2022-08-30T01:51:08;5.70;;;5.40;;
19521;SDS011;9905;52.126;5.596;2022-08-30T01:53:36;6.45;;;5.55;;
19521;SDS011;9905;52.126;5.596;2022-08-30T01:56:03;6.20;;;5.80;;
19521;SDS011;9905;52.126;5.596;2022-08-30T01:58:32;5.78;;;5.38;;
19521;SDS011;9905;52.126;5.596;2022-08-30T02:00:59;6.15;;;5.75;;
19521;SDS011;9905;52.126;5.596;2022-08-30T02:03:27;6.95;;;6.55;;
19521;SDS011;9905;52.126;5.596;2022-08-30T02:06:00;6.40;;;5.90;;
19521;SDS011;9905;52.126;5.596;2022-08-30T02:08:27;6.40;;;5.90;;
19521;SDS011;9905;52.126;5.596;2022-08-30T02:10:54;6.65;;;6.07;;
19521;SDS011;9905;52.126;5.596;2022-08-30T02:13:22;6.65;;;6.15;;
19521;SDS011;9905;52.126;5.596;2022-08-30T02:15:50;6.43;;;6.00;;
19521;SDS011;9905;52.126;5.596;2022-08-30T02:18:18;7.13;;;6.63;;
19521;SDS011;9905;52.126;5.596;2022-08-30T02:20:45;7.00;;;6.40;;
19521;SDS011;9905;52.126;5.596;2022-08-30T02:23:11;7.03;;;6.53;;
19521;SDS011;9905;52.126;5.596;2022-08-30T02:25:38;7.10;;;6.80;;
19521;SDS011;9905;52.126;5.596;2022-08-30T02:28:05;6.90;;;6.40;;
19521;SDS011;9905;52.126;5.596;2022-08-30T02:30:33;7.80;;;7.30;;
19521;SDS011;9905;52.126;5.596;2022-08-30T02:33:01;8.05;;;7.65;;
19521;SDS011;9905;52.126;5.596;2022-08-30T02:35:28;6.90;;;6.50;;
19521;SDS011;9905;52.126;5.596;2022-08-30T02:37:55;8.05;;;7.22;;
19521;SDS011;9905;52.126;5.596;2022-08-30T02:40:21;7.10;;;6.70;;
19521;SDS011;9905;52.126;5.596;2022-08-30T02:42:48;8.05;;;7.40;;
19521;SDS011;9905;52.126;5.596;2022-08-30T02:45:15;8.30;;;7.68;;
19521;SDS011;9905;52.126;5.596;2022-08-30T02:47:42;7.60;;;7.10;;
19521;SDS011;9905;52.126;5.596;2022-08-30T02:50:10;7.93;;;7.43;;
19521;SDS011;9905;52.126;5.596;2022-08-30T02:52:37;7.72;;;7.15;;
19521;SDS011;9905;52.126;5.596;2022-08-30T02:55:04;8.20;;;7.70;;
19521;SDS011;9905;52.126;5.596;2022-08-30T02:57:32;8.10;;;7.57;;
19521;SDS011;9905;52.126;5.596;2022-08-30T02:59:58;7.50;;;7.10;;
19521;SDS011;9905;52.126;5.596;2022-08-30T03:02:26;9.23;;;8.43;;
19521;SDS011;9905;52.126;5.596;2022-08-30T03:04:54;7.80;;;7.28;;
19521;SDS011;9905;52.126;5.596;2022-08-30T03:07:23;8.50;;;8.00;;
19521;SDS011;9905;52.126;5.596;2022-08-30T03:09:50;8.70;;;7.95;;
19521;SDS011;9905;52.126;5.596;2022-08-30T03:12:17;8.35;;;7.75;;
19521;SDS011;9905;52.126;5.596;2022-08-30T03:14:44;8.82;;;8.32;;
19521;SDS011;9905;52.126;5.596;2022-08-30T03:17:11;8.85;;;8.15;;
19521;SDS011;9905;52.126;5.596;2022-08-30T03:19:38;8.23;;;7.70;;
19521;SDS011;9905;52.126;5.596;2022-08-30T03:22:05;8.93;;;8.30;;
19521;SDS011;9905;52.126;5.596;2022-08-30T03:24:33;8.57;;;7.97;;
19521;SDS011;9905;52.126;5.596;2022-08-30T03:27:00;9.48;;;8.73;;
19521;SDS011;9905;52.126;5.596;2022-08-30T03:29:27;9.40;;;8.70;;
19521;SDS011;9905;52.126;5.596;2022-08-30T03:31:54;8.88;;;8.18;;
19521;SDS011;9905;52.126;5.596;2022-08-30T03:34:21;9.27;;;8.68;;
19521;SDS011;9905;52.126;5.596;2022-08-30T03:36:49;9.07;;;8.38;;
19521;SDS011;9905;52.126;5.596;2022-08-30T03:39:16;9.77;;;8.70;;
19521;SDS011;9905;52.126;5.596;2022-08-30T03:41:44;9.73;;;9.02;;
19521;SDS011;9905;52.126;5.596;2022-08-30T03:44:11;8.75;;;8.25;;
19521;SDS011;9905;52.126;5.596;2022-08-30T03:46:38;9.35;;;8.63;;
19521;SDS011;9905;52.126;5.596;2022-08-30T03:49:05;8.52;;;7.82;;
19521;SDS011;9905;52.126;5.596;2022-08-30T03:51:32;9.23;;;8.45;;
19521;SDS011;9905;52.126;5.596;2022-08-30T03:53:58;8.63;;;8.13;;
19521;SDS011;9905;52.126;5.596;2022-08-30T03:56:25;9.45;;;8.85;;
19521;SDS011;9905;52.126;5.596;2022-08-30T03:58:54;9.52;;;8.82;;
19521;SDS011;9905;52.126;5.596;2022-08-30T04:01:20;8.80;;;8.25;;
19521;SDS011;9905;52.126;5.596;2022-08-30T04:03:47;10.13;;;9.52;;
19521;SDS011;9905;52.126;5.596;2022-08-30T04:06:14;10.13;;;9.30;;
19521;SDS011;9905;52.126;5.596;2022-08-30T04:08:40;9.48;;;8.77;;
19521;SDS011;9905;52.126;5.596;2022-08-30T04:11:10;10.80;;;10.00;;
19521;SDS011;9905;52.126;5.596;2022-08-30T04:13:36;10.35;;;9.25;;
19521;SDS011;9905;52.126;5.596;2022-08-30T04:16:05;10.95;;;10.07;;
19521;SDS011;9905;52.126;5.596;2022-08-30T04:18:31;10.70;;;9.65;;
19521;SDS011;9905;52.126;5.596;2022-08-30T04:20:59;9.38;;;8.77;;
19521;SDS011;9905;52.126;5.596;2022-08-30T04:23:26;10.65;;;9.70;;
19521;SDS011;9905;52.126;5.596;2022-08-30T04:25:53;9.85;;;9.15;;
19521;SDS011;9905;52.126;5.596;2022-08-30T04:28:21;10.40;;;9.40;;
19521;SDS011;9905;52.126;5.596;2022-08-30T04:30:48;10.30;;;9.52;;
19521;SDS011;9905;52.126;5.596;2022-08-30T04:33:16;10.48;;;9.57;;
19521;SDS011;9905;52.126;5.596;2022-08-30T04:35:44;10.55;;;9.75;;
19521;SDS011;9905;52.126;5.596;2022-08-30T04:38:12;10.13;;;9.35;;
19521;SDS011;9905;52.126;5.596;2022-08-30T04:40:39;9.88;;;9.32;;
19521;SDS011;9905;52.126;5.596;2022-08-30T04:43:07;9.95;;;9.25;;
19521;SDS011;9905;52.126;5.596;2022-08-30T04:45:36;10.52;;;9.65;;
19521;SDS011;9905;52.126;5.596;2022-08-30T04:48:03;11.15;;;10.27;;
19521;SDS011;9905;52.126;5.596;2022-08-30T04:50:32;10.70;;;9.80;;
19521;SDS011;9905;52.126;5.596;2022-08-30T04:52:59;11.25;;;9.95;;
19521;SDS011;9905;52.126;5.596;2022-08-30T04:55:26;10.27;;;9.50;;
19521;SDS011;9905;52.126;5.596;2022-08-30T04:57:52;10.02;;;9.35;;
19521;SDS011;9905;52.126;5.596;2022-08-30T05:00:19;10.57;;;9.77;;
19521;SDS011;9905;52.126;5.596;2022-08-30T05:02:46;10.52;;;9.93;;
19521;SDS011;9905;52.126;5.596;2022-08-30T05:05:13;10.27;;;9.45;;
19521;SDS011;9905;52.126;5.596;2022-08-30T05:07:59;10.98;;;10.07;;
19521;SDS011;9905;52.126;5.596;2022-08-30T05:10:26;11.57;;;10.45;;
19521;SDS011;9905;52.126;5.596;2022-08-30T05:12:53;10.25;;;9.38;;
19521;SDS011;9905;52.126;5.596;2022-08-30T05:15:20;10.65;;;9.85;;
19521;SDS011;9905;52.126;5.596;2022-08-30T05:17:47;10.57;;;9.95;;
19521;SDS011;9905;52.126;5.596;2022-08-30T05:20:14;10.38;;;9.20;;
19521;SDS011;9905;52.126;5.596;2022-08-30T05:22:41;11.35;;;10.27;;
19521;SDS011;9905;52.126;5.596;2022-08-30T05:25:15;10.60;;;9.70;;
19521;SDS011;9905;52.126;5.596;2022-08-30T05:27:42;10.00;;;9.38;;
19521;SDS011;9905;52.126;5.596;2022-08-30T05:30:10;9.93;;;9.20;;
19521;SDS011;9905;52.126;5.596;2022-08-30T05:32:38;9.90;;;9.20;;
19521;SDS011;9905;52.126;5.596;2022-08-30T05:35:05;10.73;;;9.70;;
19521;SDS011;9905;52.126;5.596;2022-08-30T05:37:32;11.13;;;9.75;;
19521;SDS011;9905;52.126;5.596;2022-08-30T05:39:59;10.30;;;9.57;;
19521;SDS011;9905;52.126;5.596;2022-08-30T05:42:27;10.38;;;9.43;;
19521;SDS011;9905;52.126;5.596;2022-08-30T05:44:55;10.00;;;8.98;;
19521;SDS011;9905;52.126;5.596;2022-08-30T05:47:21;10.18;;;9.43;;
19521;SDS011;9905;52.126;5.596;2022-08-30T05:49:48;9.85;;;9.15;;
19521;SDS011;9905;52.126;5.596;2022-08-30T05:52:15;9.65;;;8.85;;
19521;SDS011;9905;52.126;5.596;2022-08-30T05:54:42;9.27;;;8.60;;
19521;SDS011;9905;52.126;5.596;2022-08-30T05:57:09;9.55;;;8.95;;
19521;SDS011;9905;52.126;5.596;2022-08-30T05:59:37;9.63;;;8.73;;
19521;SDS011;9905;52.126;5.596;2022-08-30T06:02:04;9.77;;;9.07;;
19521;SDS011;9905;52.126;5.596;2022-08-30T06:04:31;9.88;;;9.18;;
19521;SDS011;9905;52.126;5.596;2022-08-30T06:06:58;9.13;;;8.63;;
19521;SDS011;9905;52.126;5.596;2022-08-30T06:09:25;9.20;;;8.50;;
19521;SDS011;9905;52.126;5.596;2022-08-30T06:11:51;9.02;;;8.32;;
19521;SDS011;9905;52.126;5.596;2022-08-30T06:14:18;9.15;;;8.43;;
19521;SDS011;9905;52.126;5.596;2022-08-30T06:16:48;8.20;;;7.57;;
19521;SDS011;9905;52.126;5.596;2022-08-30T06:19:16;9.00;;;8.30;;
19521;SDS011;9905;52.126;5.596;2022-08-30T06:21:46;7.78;;;7.28;;
19521;SDS011;9905;52.126;5.596;2022-08-30T06:24:13;7.80;;;7.32;;
19521;SDS011;9905;52.126;5.596;2022-08-30T06:26:41;8.35;;;7.68;;
19521;SDS011;9905;52.126;5.596;2022-08-30T06:29:10;8.27;;;7.78;;
19521;SDS011;9905;52.126;5.596;2022-08-30T06:31:39;7.55;;;7.05;;
19521;SDS011;9905;52.126;5.596;2022-08-30T06:34:07;7.32;;;6.93;;
19521;SDS011;9905;52.126;5.596;2022-08-30T06:36:34;7.05;;;6.65;;
19521;SDS011;9905;52.126;5.596;2022-08-30T06:39:02;10.55;;;6.05;;
19521;SDS011;9905;52.126;5.596;2022-08-30T06:41:30;6.43;;;6.03;;
19521;SDS011;9905;52.126;5.596;2022-08-30T06:43:59;6.20;;;5.72;;
19521;SDS011;9905;52.126;5.596;2022-08-30T06:46:27;5.50;;;5.18;;
19521;SDS011;9905;52.126;5.596;2022-08-30T06:48:56;5.18;;;4.90;;
19521;SDS011;9905;52.126;5.596;2022-08-30T06:51:25;5.07;;;4.65;;
19521;SDS011;9905;52.126;5.596;2022-08-30T06:53:54;4.50;;;4.30;;
19521;SDS011;9905;52.126;5.596;2022-08-30T06:56:21;4.18;;;3.97;;
19521;SDS011;9905;52.126;5.596;2022-08-30T06:58:49;4.68;;;4.38;;
19521;SDS011;9905;52.126;5.596;2022-08-30T07:01:17;4.40;;;4.10;;
19521;SDS011;9905;52.126;5.596;2022-08-30T07:03:45;3.90;;;3.60;;
19521;SDS011;9905;52.126;5.596;2022-08-30T07:06:12;3.65;;;3.45;;
19521;SDS011;9905;52.126;5.596;2022-08-30T07:08:41;3.22;;;3.13;;
19521;SDS011;9905;52.126;5.596;2022-08-30T07:11:08;2.92;;;2.83;;
19521;SDS011;9905;52.126;5.596;2022-08-30T07:13:35;5.43;;;2.50;;
19521;SDS011;9905;52.126;5.596;2022-08-30T07:16:07;2.60;;;2.50;;
19521;SDS011;9905;52.126;5.596;2022-08-30T07:18:35;2.95;;;2.75;;
19521;SDS011;9905;52.126;5.596;2022-08-30T07:21:19;4.53;;;2.58;;
19521;SDS011;9905;52.126;5.596;2022-08-30T07:23:50;2.72;;;2.63;;
19521;SDS011;9905;52.126;5.596;2022-08-30T07:26:19;2.65;;;2.45;;
19521;SDS011;9905;52.126;5.596;2022-08-30T07:28:48;2.75;;;2.65;;
19521;SDS011;9905;52.126;5.596;2022-08-30T07:31:15;3.00;;;2.22;;
19521;SDS011;9905;52.126;5.596;2022-08-30T07:33:43;2.80;;;2.50;;
19521;SDS011;9905;52.126;5.596;2022-08-30T07:36:10;4.57;;;2.63;;
19521;SDS011;9905;52.126;5.596;2022-08-30T07:38:38;3.40;;;2.50;;
19521;SDS011;9905;52.126;5.596;2022-08-30T07:41:06;2.45;;;2.30;;
19521;SDS011;9905;52.126;5.596;2022-08-30T07:43:34;2.08;;;1.98;;
19521;SDS011;9905;52.126;5.596;2022-08-30T07:46:02;1.98;;;1.88;;
19521;SDS011;9905;52.126;5.596;2022-08-30T07:48:30;1.83;;;1.77;;
19521;SDS011;9905;52.126;5.596;2022-08-30T07:50:57;2.03;;;1.92;;
19521;SDS011;9905;52.126;5.596;2022-08-30T07:53:24;2.10;;;2.00;;
19521;SDS011;9905;52.126;5.596;2022-08-30T07:55:52;2.00;;;1.90;;
19521;SDS011;9905;52.126;5.596;2022-08-30T07:58:20;2.30;;;2.10;;
19521;SDS011;9905;52.126;5.596;2022-08-30T08:00:47;2.50;;;2.10;;
19521;SDS011;9905;52.126;5.596;2022-08-30T08:03:13;2.22;;;2.13;;
19521;SDS011;9905;52.126;5.596;2022-08-30T08:05:41;4.00;;;1.90;;
19521;SDS011;9905;52.126;5.596;2022-08-30T08:08:10;2.10;;;1.98;;
19521;SDS011;9905;52.126;5.596;2022-08-30T08:10:39;2.42;;;2.22;;
19521;SDS011;9905;52.126;5.596;2022-08-30T08:13:06;2.15;;;2.05;;
19521;SDS011;9905;52.126;5.596;2022-08-30T08:15:35;1.73;;;1.73;;
19521;SDS011;9905;52.126;5.596;2022-08-30T08:18:02;2.20;;;2.10;;
19521;SDS011;9905;52.126;5.596;2022-08-30T08:20:29;2.55;;;2.00;;
19521;SDS011;9905;52.126;5.596;2022-08-30T08:22:59;1.90;;;1.80;;
19521;SDS011;9905;52.126;5.596;2022-08-30T08:25:26;2.25;;;2.10;;
19521;SDS011;9905;52.126;5.596;2022-08-30T08:27:53;2.33;;;2.13;;
19521;SDS011;9905;52.126;5.596;2022-08-30T08:30:21;3.25;;;2.08;;
19521;SDS011;9905;52.126;5.596;2022-08-30T08:32:50;2.00;;;1.90;;
19521;SDS011;9905;52.126;5.596;2022-08-30T08:35:18;2.53;;;1.92;;
19521;SDS011;9905;52.126;5.596;2022-08-30T08:37:44;2.35;;;1.98;;
19521;SDS011;9905;52.126;5.596;2022-08-30T08:40:13;2.63;;;1.67;;
19521;SDS011;9905;52.126;5.596;2022-08-30T08:42:47;1.77;;;1.70;;
19521;SDS011;9905;52.126;5.596;2022-08-30T08:45:23;2.15;;;1.83;;
19521;SDS011;9905;52.126;5.596;2022-08-30T08:48:02;1.95;;;1.80;;
19521;SDS011;9905;52.126;5.596;2022-08-30T08:50:32;1.83;;;1.73;;
19521;SDS011;9905;52.126;5.596;2022-08-30T08:53:00;1.92;;;1.83;;
19521;SDS011;9905;52.126;5.596;2022-08-30T08:55:49;1.80;;;1.70;;
19521;SDS011;9905;52.126;5.596;2022-08-30T08:58:20;1.85;;;1.75;;
19521;SDS011;9905;52.126;5.596;2022-08-30T09:00:50;2.15;;;2.00;;
19521;SDS011;9905;52.126;5.596;2022-08-30T09:03:19;2.15;;;1.90;;
19521;SDS011;9905;52.126;5.596;2022-08-30T09:05:47;2.42;;;1.67;;
19521;SDS011;9905;52.126;5.596;2022-08-30T09:08:15;1.80;;;1.70;;
19521;SDS011;9905;52.126;5.596;2022-08-30T09:10:45;1.83;;;1.73;;
19521;SDS011;9905;52.126;5.596;2022-08-30T09:13:17;1.90;;;1.80;;
19521;SDS011;9905;52.126;5.596;2022-08-30T09:15:44;1.70;;;1.60;;
19521;SDS011;9905;52.126;5.596;2022-08-30T09:18:11;1.98;;;1.63;;
19521;SDS011;9905;52.126;5.596;2022-08-30T09:20:40;1.60;;;1.50;;
19521;SDS011;9905;52.126;5.596;2022-08-30T09:23:19;2.78;;;1.63;;
19521;SDS011;9905;52.126;5.596;2022-08-30T09:25:49;1.63;;;1.52;;
19521;SDS011;9905;52.126;5.596;2022-08-30T09:28:20;1.88;;;1.58;;
19521;SDS011;9905;52.126;5.596;2022-08-30T09:30:56;1.45;;;1.45;;
19521;SDS011;9905;52.126;5.596;2022-08-30T09:33:29;2.08;;;1.73;;
19521;SDS011;9905;52.126;5.596;2022-08-30T09:36:08;1.80;;;1.75;;
19521;SDS011;9905;52.126;5.596;2022-08-30T09:38:38;1.75;;;1.65;;
19521;SDS011;9905;52.126;5.596;2022-08-30T09:44:06;2.03;;;1.83;;
19521;SDS011;9905;52.126;5.596;2022-08-30T09:46:41;2.03;;;1.92;;
19521;SDS011;9905;52.126;5.596;2022-08-30T09:49:20;2.00;;;1.90;;
19521;SDS011;9905;52.126;5.596;2022-08-30T09:51:56;2.03;;;1.70;;
19521;SDS011;9905;52.126;5.596;2022-08-30T09:54:33;1.65;;;1.58;;
19521;SDS011;9905;52.126;5.596;2022-08-30T09:57:06;1.77;;;1.67;;
19521;SDS011;9905;52.126;5.596;2022-08-30T09:59:42;1.80;;;1.70;;
19521;SDS011;9905;52.126;5.596;2022-08-30T10:02:20;1.80;;;1.70;;
19521;SDS011;9905;52.126;5.596;2022-08-30T10:05:00;1.50;;;1.40;;
19521;SDS011;9905;52.126;5.596;2022-08-30T10:07:32;2.55;;;1.77;;
19521;SDS011;9905;52.126;5.596;2022-08-30T10:10:09;1.70;;;1.60;;
19521;SDS011;9905;52.126;5.596;2022-08-30T10:12:44;1.95;;;1.73;;
19521;SDS011;9905;52.126;5.596;2022-08-30T10:15:24;3.45;;;2.28;;
19521;SDS011;9905;52.126;5.596;2022-08-30T10:17:55;1.75;;;1.65;;
19521;SDS011;9905;52.126;5.596;2022-08-30T10:20:30;1.83;;;1.58;;
19521;SDS011;9905;52.126;5.596;2022-08-30T10:23:05;3.15;;;1.70;;
19521;SDS011;9905;52.126;5.596;2022-08-30T10:25:35;1.88;;;1.77;;
19521;SDS011;9905;52.126;5.596;2022-08-30T10:28:06;1.50;;;1.40;;
19521;SDS011;9905;52.126;5.596;2022-08-30T10:30:39;1.60;;;1.50;;
19521;SDS011;9905;52.126;5.596;2022-08-30T10:33:11;1.40;;;1.40;;
19521;SDS011;9905;52.126;5.596;2022-08-30T10:35:42;2.33;;;1.50;;
19521;SDS011;9905;52.126;5.596;2022-08-30T10:38:17;1.63;;;1.63;;
19521;SDS011;9905;52.126;5.596;2022-08-30T10:40:47;1.75;;;1.65;;
19521;SDS011;9905;52.126;5.596;2022-08-30T10:43:42;2.58;;;1.70;;
19521;SDS011;9905;52.126;5.596;2022-08-30T10:46:17;3.10;;;1.50;;
19521;SDS011;9905;52.126;5.596;2022-08-30T10:48:49;1.98;;;1.50;;
19521;SDS011;9905;52.126;5.596;2022-08-30T10:51:19;4.35;;;1.40;;
19521;SDS011;9905;52.126;5.596;2022-08-30T10:53:53;3.65;;;1.40;;
19521;SDS011;9905;52.126;5.596;2022-08-30T10:56:24;1.63;;;1.52;;
19521;SDS011;9905;52.126;5.596;2022-08-30T10:58:53;3.95;;;1.52;;
19521;SDS011;9905;52.126;5.596;2022-08-30T11:01:28;1.58;;;1.48;;
19521;SDS011;9905;52.126;5.596;2022-08-30T11:07:07;1.40;;;1.40;;
19521;SDS011;9905;52.126;5.596;2022-08-30T11:09:50;1.92;;;1.65;;
19521;SDS011;9905;52.126;5.596;2022-08-30T11:12:33;3.60;;;1.50;;
19521;SDS011;9905;52.126;5.596;2022-08-30T11:17:53;1.63;;;1.52;;
19521;SDS011;9905;52.126;5.596;2022-08-30T11:20:30;1.30;;;1.30;;
19521;SDS011;9905;52.126;5.596;2022-08-30T11:23:18;1.30;;;1.30;;
19521;SDS011;9905;52.126;5.596;2022-08-30T11:25:56;1.63;;;1.50;;
19521;SDS011;9905;52.126;5.596;2022-08-30T11:31:37;1.67;;;1.58;;
19521;SDS011;9905;52.126;5.596;2022-08-30T11:34:06;1.60;;;1.50;;
19521;SDS011;9905;52.126;5.596;2022-08-30T11:39:39;1.40;;;1.30;;
19521;SDS011;9905;52.126;5.596;2022-08-30T11:42:25;3.75;;;1.60;;
19521;SDS011;9905;52.126;5.596;2022-08-30T11:48:02;3.10;;;1.50;;
19521;SDS011;9905;52.126;5.596;2022-08-30T11:50:32;1.50;;;1.45;;
19521;SDS011;9905;52.126;5.596;2022-08-30T11:53:05;1.65;;;1.58;;
19521;SDS011;9905;52.126;5.596;2022-08-30T11:55:43;1.45;;;1.40;;
19521;SDS011;9905;52.126;5.596;2022-08-30T11:58:21;1.67;;;1.52;;
19521;SDS011;9905;52.126;5.596;2022-08-30T12:01:12;2.67;;;1.70;;
19521;SDS011;9905;52.126;5.596;2022-08-30T12:03:55;1.50;;;1.35;;
19521;SDS011;9905;52.126;5.596;2022-08-30T12:06:42;1.77;;;1.42;;
19521;SDS011;9905;52.126;5.596;2022-08-30T12:09:11;2.88;;;1.45;;
19521;SDS011;9905;52.126;5.596;2022-08-30T12:12:42;1.40;;;1.30;;
19521;SDS011;9905;52.126;5.596;2022-08-30T12:15:24;2.67;;;1.30;;
19521;SDS011;9905;52.126;5.596;2022-08-30T12:18:13;1.80;;;1.52;;
19521;SDS011;9905;52.126;5.596;2022-08-30T12:20:56;1.70;;;1.60;;
19521;SDS011;9905;52.126;5.596;2022-08-30T12:23:31;1.52;;;1.40;;
19521;SDS011;9905;52.126;5.596;2022-08-30T12:26:12;1.33;;;1.25;;
19521;SDS011;9905;52.126;5.596;2022-08-30T12:28:45;3.05;;;1.40;;
19521;SDS011;9905;52.126;5.596;2022-08-30T12:31:16;1.10;;;1.10;;
19521;SDS011;9905;52.126;5.596;2022-08-30T12:33:58;1.30;;;1.30;;
19521;SDS011;9905;52.126;5.596;2022-08-30T12:36:32;1.42;;;1.42;;
19521;SDS011;9905;52.126;5.596;2022-08-30T12:39:07;4.18;;;1.40;;
19521;SDS011;9905;52.126;5.596;2022-08-30T12:41:36;1.58;;;1.15;;
19521;SDS011;9905;52.126;5.596;2022-08-30T12:44:03;1.75;;;1.25;;
19521;SDS011;9905;52.126;5.596;2022-08-30T12:46:36;1.75;;;1.40;;
19521;SDS011;9905;52.126;5.596;2022-08-30T12:49:03;1.52;;;1.45;;
19521;SDS011;9905;52.126;5.596;2022-08-30T12:51:35;1.83;;;1.50;;
19521;SDS011;9905;52.126;5.596;2022-08-30T12:54:05;1.73;;;1.50;;
19521;SDS011;9905;52.126;5.596;2022-08-30T12:56:45;1.33;;;1.23;;
19521;SDS011;9905;52.126;5.596;2022-08-30T13:02:08;1.50;;;1.40;;
19521;SDS011;9905;52.126;5.596;2022-08-30T13:04:37;1.30;;;1.30;;
19521;SDS011;9905;52.126;5.596;2022-08-30T13:07:05;1.30;;;1.30;;
19521;SDS011;9905;52.126;5.596;2022-08-30T13:09:32;1.90;;;1.48;;
19521;SDS011;9905;52.126;5.596;2022-08-30T13:12:02;1.70;;;1.50;;
19521;SDS011;9905;52.126;5.596;2022-08-30T13:14:33;1.48;;;1.38;;
19521;SDS011;9905;52.126;5.596;2022-08-30T13:17:06;1.50;;;1.40;;
19521;SDS011;9905;52.126;5.596;2022-08-30T13:19:38;1.40;;;1.30;;
19521;SDS011;9905;52.126;5.596;2022-08-30T13:22:11;1.50;;;1.40;;
19521;SDS011;9905;52.126;5.596;2022-08-30T13:24:50;1.23;;;1.23;;
19521;SDS011;9905;52.126;5.596;2022-08-30T13:27:17;1.42;;;1.40;;
19521;SDS011;9905;52.126;5.596;2022-08-30T13:29:44;2.28;;;1.70;;
19521;SDS011;9905;52.126;5.596;2022-08-30T13:32:12;3.30;;;1.40;;
19521;SDS011;9905;52.126;5.596;2022-08-30T13:34:40;1.90;;;1.38;;
19521;SDS011;9905;52.126;5.596;2022-08-30T13:37:08;2.53;;;1.40;;
19521;SDS011;9905;52.126;5.596;2022-08-30T13:39:37;1.83;;;1.25;;
19521;SDS011;9905;52.126;5.596;2022-08-30T13:42:05;1.42;;;1.30;;
19521;SDS011;9905;52.126;5.596;2022-08-30T13:44:32;3.72;;;1.50;;
19521;SDS011;9905;52.126;5.596;2022-08-30T13:46:58;1.30;;;1.20;;
19521;SDS011;9905;52.126;5.596;2022-08-30T13:49:28;1.27;;;1.27;;
19521;SDS011;9905;52.126;5.596;2022-08-30T13:51:56;1.48;;;1.38;;
19521;SDS011;9905;52.126;5.596;2022-08-30T13:54:23;1.48;;;1.35;;
19521;SDS011;9905;52.126;5.596;2022-08-30T13:56:51;2.67;;;1.38;;
19521;SDS011;9905;52.126;5.596;2022-08-30T13:59:20;1.48;;;1.42;;
19521;SDS011;9905;52.126;5.596;2022-08-30T14:01:47;1.63;;;1.17;;
19521;SDS011;9905;52.126;5.596;2022-08-30T14:04:15;2.35;;;1.30;;
19521;SDS011;9905;52.126;5.596;2022-08-30T14:06:43;1.08;;;1.08;;
19521;SDS011;9905;52.126;5.596;2022-08-30T14:09:10;2.30;;;1.23;;
19521;SDS011;9905;52.126;5.596;2022-08-30T14:11:38;1.25;;;1.25;;
19521;SDS011;9905;52.126;5.596;2022-08-30T14:14:06;1.23;;;1.20;;
19521;SDS011;9905;52.126;5.596;2022-08-30T14:16:33;1.65;;;1.52;;
19521;SDS011;9905;52.126;5.596;2022-08-30T14:19:01;2.38;;;1.20;;
19521;SDS011;9905;52.126;5.596;2022-08-30T14:21:29;1.50;;;1.40;;
19521;SDS011;9905;52.126;5.596;2022-08-30T14:23:57;1.90;;;1.50;;
19521;SDS011;9905;52.126;5.596;2022-08-30T14:26:25;1.50;;;1.40;;
19521;SDS011;9905;52.126;5.596;2022-08-30T14:28:54;1.58;;;1.48;;
19521;SDS011;9905;52.126;5.596;2022-08-30T14:31:21;1.67;;;1.30;;
19521;SDS011;9905;52.126;5.596;2022-08-30T14:33:48;1.63;;;1.30;;
19521;SDS011;9905;52.126;5.596;2022-08-30T14:36:15;2.05;;;1.27;;
19521;SDS011;9905;52.126;5.596;2022-08-30T14:38:42;1.20;;;1.10;;
19521;SDS011;9905;52.126;5.596;2022-08-30T14:41:10;1.63;;;1.52;;
19521;SDS011;9905;52.126;5.596;2022-08-30T14:43:37;1.80;;;1.40;;
19521;SDS011;9905;52.126;5.596;2022-08-30T14:46:04;1.17;;;1.15;;
19521;SDS011;9905;52.126;5.596;2022-08-30T14:48:31;2.17;;;1.60;;
19521;SDS011;9905;52.126;5.596;2022-08-30T14:50:57;2.33;;;1.73;;
19521;SDS011;9905;52.126;5.596;2022-08-30T14:53:24;1.45;;;1.35;;
19521;SDS011;9905;52.126;5.596;2022-08-30T14:55:51;1.17;;;1.17;;
19521;SDS011;9905;52.126;5.596;2022-08-30T14:58:19;1.70;;;1.30;;
19521;SDS011;9905;52.126;5.596;2022-08-30T15:00:48;2.95;;;1.40;;
19521;SDS011;9905;52.126;5.596;2022-08-30T15:03:16;1.35;;;1.25;;
19521;SDS011;9905;52.126;5.596;2022-08-30T15:05:46;1.20;;;1.10;;
19521;SDS011;9905;52.126;5.596;2022-08-30T15:08:14;2.53;;;1.20;;
19521;SDS011;9905;52.126;5.596;2022-08-30T15:10:41;1.60;;;1.50;;
19521;SDS011;9905;52.126;5.596;2022-08-30T15:13:08;1.60;;;1.30;;
19521;SDS011;9905;52.126;5.596;2022-08-30T15:15:36;1.77;;;1.23;;
19521;SDS011;9905;52.126;5.596;2022-08-30T15:18:03;1.33;;;1.33;;
19521;SDS011;9905;52.126;5.596;2022-08-30T15:20:30;1.33;;;1.23;;
19521;SDS011;9905;52.126;5.596;2022-08-30T15:22:56;1.67;;;1.58;;
19521;SDS011;9905;52.126;5.596;2022-08-30T15:25:23;2.33;;;1.25;;
19521;SDS011;9905;52.126;5.596;2022-08-30T15:27:50;1.20;;;1.10;;
19521;SDS011;9905;52.126;5.596;2022-08-30T15:30:16;1.42;;;1.38;;
19521;SDS011;9905;52.126;5.596;2022-08-30T15:32:45;1.65;;;1.40;;
19521;SDS011;9905;52.126;5.596;2022-08-30T15:35:12;1.50;;;1.40;;
19521;SDS011;9905;52.126;5.596;2022-08-30T15:37:38;1.50;;;1.40;;